createdAt,value
2022-08-16T00:00:04.378Z,23.00
2022-08-16T00:01:06.912Z,23.00
2022-08-16T00:02:13.132Z,23.00
2022-08-16T00:03:15.431Z,22.90
2022-08-16T00:04:21.058Z,23.00
2022-08-16T00:05:25.132Z,23.00
2022-08-16T00:06:29.374Z,22.90
2022-08-16T00:07:31.121Z,22.90
2022-08-16T00:08:36.721Z,23.00
2022-08-16T00:09:39.175Z,22.90
2022-08-16T00:10:43.591Z,22.90
2022-08-16T00:11:48.536Z,22.90
2022-08-16T00:12:54.975Z,22.90
2022-08-16T00:13:57.209Z,22.90
2022-08-16T00:15:01.724Z,22.80
2022-08-16T00:17:01.221Z,22.90
2022-08-16T00:17:28.266Z,22.80
2022-08-16T00:18:30.105Z,22.80
2022-08-16T00:19:41.200Z,22.80
2022-08-16T00:20:47.371Z,22.80
2022-08-16T00:21:52.207Z,22.80
2022-08-16T00:22:56.355Z,22.80
2022-08-16T00:23:58.855Z,22.80
2022-08-16T00:25:00.805Z,22.80
2022-08-16T00:26:34.964Z,22.80
2022-08-16T00:27:24.668Z,22.80
2022-08-16T00:28:28.543Z,22.80
2022-08-16T00:29:32.691Z,22.80
2022-08-16T00:30:34.533Z,22.90
2022-08-16T00:31:59.410Z,22.90
2022-08-16T00:33:01.023Z,22.90
2022-08-16T00:34:04.604Z,22.90
2022-08-16T00:35:11.009Z,22.90
2022-08-16T00:36:17.556Z,23.00
2022-08-16T00:37:21.007Z,23.00
2022-08-16T00:38:40.882Z,23.00
2022-08-16T00:39:46.969Z,23.00
2022-08-16T00:40:53.715Z,23.00
2022-08-16T00:41:56.138Z,23.10
2022-08-16T00:42:57.877Z,23.10
2022-08-16T00:44:02.258Z,23.10
2022-08-16T00:45:35.588Z,23.10
2022-08-16T00:46:52.704Z,23.10
2022-08-16T00:48:31.397Z,23.10
2022-08-16T00:49:39.638Z,23.10
2022-08-16T00:50:47.036Z,23.10
2022-08-16T00:51:57.048Z,23.10
2022-08-16T00:52:59.288Z,23.00
2022-08-16T00:54:01.228Z,23.00
2022-08-16T00:55:04.572Z,23.00
2022-08-16T00:56:55.872Z,23.00
2022-08-16T00:57:59.657Z,23.00
2022-08-16T00:59:00.488Z,23.00
2022-08-16T01:00:07.685Z,23.00
2022-08-16T01:01:11.758Z,23.00
2022-08-16T01:02:31.582Z,23.00
2022-08-16T01:03:41.503Z,22.90
2022-08-16T01:04:43.612Z,22.90
2022-08-16T01:06:32.595Z,22.90
2022-08-16T01:07:29.747Z,22.90
2022-08-16T01:08:54.913Z,22.90
2022-08-16T01:09:56.997Z,22.90
2022-08-16T01:10:59.919Z,22.90
2022-08-16T01:12:08.736Z,22.90
2022-08-16T01:13:18.900Z,22.90
2022-08-16T01:14:29.955Z,22.90
2022-08-16T01:15:33.507Z,22.90
2022-08-16T01:16:35.560Z,22.90
2022-08-16T01:17:38.990Z,22.90
2022-08-16T01:18:57.343Z,22.90
2022-08-16T01:20:03.069Z,22.80
2022-08-16T01:22:49.469Z,22.90
2022-08-16T01:23:58.172Z,22.80
2022-08-16T01:24:56.698Z,22.80
2022-08-16T01:26:00.227Z,22.80
2022-08-16T01:27:29.220Z,22.80
2022-08-16T01:28:34.704Z,22.70
2022-08-16T01:29:59.773Z,22.80
2022-08-16T01:31:05.048Z,22.70
2022-08-16T01:32:06.739Z,22.70
2022-08-16T01:33:15.133Z,22.80
2022-08-16T01:34:25.130Z,22.70
2022-08-16T01:35:35.027Z,22.70
2022-08-16T01:36:38.277Z,22.70
2022-08-16T01:37:44.080Z,22.70
2022-08-16T01:38:57.457Z,22.70
2022-08-16T01:39:59.320Z,22.70
2022-08-16T01:41:07.115Z,22.70
2022-08-16T01:42:13.034Z,22.60
2022-08-16T01:43:14.951Z,22.60
2022-08-16T01:44:18.556Z,22.60
2022-08-16T01:45:20.909Z,22.60
2022-08-16T01:46:39.099Z,22.60
2022-08-16T01:47:49.533Z,22.60
2022-08-16T01:49:02.420Z,22.50
2022-08-16T01:50:43.242Z,22.50
2022-08-16T01:51:30.219Z,22.50
2022-08-16T01:52:33.138Z,22.40
2022-08-16T01:53:35.177Z,22.30
2022-08-16T01:54:38.549Z,22.40
2022-08-16T01:55:42.823Z,22.30
2022-08-16T01:56:56.254Z,22.30
2022-08-16T01:57:58.063Z,22.30
2022-08-16T01:59:04.634Z,22.30
2022-08-16T02:00:19.330Z,22.20
2022-08-16T02:01:21.762Z,22.20
2022-08-16T02:02:28.876Z,22.20
2022-08-16T02:03:30.911Z,22.30
2022-08-16T02:04:48.816Z,22.20
2022-08-16T02:05:56.065Z,22.30
2022-08-16T02:06:59.431Z,22.30
2022-08-16T02:08:02.568Z,22.30
2022-08-16T02:09:11.586Z,22.30
2022-08-16T02:10:16.781Z,22.20
2022-08-16T02:11:19.718Z,22.20
2022-08-16T02:12:45.823Z,22.20
2022-08-16T02:13:43.257Z,22.20
2022-08-16T02:14:45.263Z,22.20
2022-08-16T02:15:47.352Z,22.10
2022-08-16T02:16:52.427Z,22.10
2022-08-16T02:17:56.059Z,22.10
2022-08-16T02:18:57.732Z,22.10
2022-08-16T02:20:00.622Z,22.10
2022-08-16T02:21:04.561Z,22.10
2022-08-16T02:22:33.556Z,22.10
2022-08-16T02:23:34.008Z,22.10
2022-08-16T02:24:42.520Z,22.10
2022-08-16T02:25:51.780Z,22.00
2022-08-16T02:26:56.386Z,22.10
2022-08-16T02:27:59.253Z,22.10
2022-08-16T02:29:02.179Z,22.10
2022-08-16T02:30:07.569Z,22.10
2022-08-16T02:31:11.456Z,22.10
2022-08-16T02:32:50.007Z,22.10
2022-08-16T02:33:44.603Z,22.10
2022-08-16T02:35:54.016Z,22.10
2022-08-16T02:36:59.905Z,22.10
2022-08-16T02:38:08.803Z,22.10
2022-08-16T02:39:12.609Z,22.10
2022-08-16T02:40:17.759Z,22.10
2022-08-16T02:41:19.746Z,22.10
2022-08-16T02:42:21.642Z,22.10
2022-08-16T02:43:29.312Z,22.00
2022-08-16T02:44:34.984Z,22.00
2022-08-16T02:45:37.622Z,22.00
2022-08-16T02:46:39.487Z,22.00
2022-08-16T02:48:01.149Z,22.00
2022-08-16T02:49:14.655Z,22.00
2022-08-16T02:50:55.463Z,22.00
2022-08-16T02:51:41.800Z,22.00
2022-08-16T02:52:43.777Z,22.00
2022-08-16T02:53:47.375Z,22.00
2022-08-16T02:54:55.540Z,22.00
2022-08-16T02:55:57.923Z,21.90
2022-08-16T02:57:01.170Z,21.90
2022-08-16T02:58:02.980Z,21.90
2022-08-16T02:59:11.726Z,22.00
2022-08-16T03:00:34.195Z,22.00
2022-08-16T03:01:37.524Z,22.00
2022-08-16T03:02:41.321Z,22.00
2022-08-16T03:04:28.695Z,22.00
2022-08-16T03:05:06.513Z,22.00
2022-08-16T03:06:41.286Z,22.10
2022-08-16T03:07:37.115Z,22.10
2022-08-16T03:08:52.699Z,22.10
2022-08-16T03:09:55.009Z,22.10
2022-08-16T03:10:59.160Z,22.10
2022-08-16T03:12:02.353Z,22.10
2022-08-16T03:13:12.569Z,22.10
2022-08-16T03:14:15.058Z,22.10
2022-08-16T03:15:24.458Z,22.10
2022-08-16T03:16:36.610Z,22.10
2022-08-16T03:17:53.410Z,22.10
2022-08-16T03:18:56.157Z,22.10
2022-08-16T03:20:00.018Z,22.10
2022-08-16T03:21:04.470Z,22.10
2022-08-16T03:22:07.180Z,22.10
2022-08-16T03:23:09.086Z,22.10
2022-08-16T03:24:28.550Z,22.10
2022-08-16T03:25:41.031Z,22.10
2022-08-16T03:26:46.119Z,22.10
2022-08-16T03:27:47.908Z,22.20
2022-08-16T03:28:51.720Z,22.20
2022-08-16T03:29:54.662Z,22.20
2022-08-16T03:30:56.644Z,22.20
2022-08-16T03:31:59.698Z,22.10
2022-08-16T03:33:07.489Z,22.10
2022-08-16T03:34:09.822Z,22.00
2022-08-16T03:35:17.803Z,22.10
2022-08-16T03:36:31.130Z,22.00
2022-08-16T03:38:02.657Z,22.00
2022-08-16T03:38:57.918Z,22.00
2022-08-16T03:40:02.955Z,22.00
2022-08-16T03:41:17.123Z,22.00
2022-08-16T03:42:27.541Z,22.00
2022-08-16T03:43:51.457Z,22.00
2022-08-16T03:44:52.032Z,22.00
2022-08-16T03:46:05.561Z,22.00
2022-08-16T03:47:10.430Z,21.90
2022-08-16T03:48:15.037Z,21.90
2022-08-16T03:49:20.184Z,21.90
2022-08-16T03:50:25.386Z,21.90
2022-08-16T03:51:28.311Z,21.90
2022-08-16T03:52:31.581Z,21.90
2022-08-16T03:53:38.003Z,21.90
2022-08-16T03:54:53.568Z,21.90
2022-08-16T03:56:00.008Z,21.90
2022-08-16T03:57:01.995Z,21.90
2022-08-16T03:58:03.645Z,21.90
2022-08-16T03:59:06.706Z,21.90
2022-08-16T04:00:20.692Z,21.90
2022-08-16T04:01:37.439Z,21.90
2022-08-16T04:02:40.653Z,21.80
2022-08-16T04:03:43.126Z,21.80
2022-08-16T04:04:46.882Z,21.80
2022-08-16T04:05:51.148Z,21.80
2022-08-16T04:06:55.894Z,21.80
2022-08-16T04:07:57.569Z,21.70
2022-08-16T04:08:59.237Z,21.70
2022-08-16T04:10:37.105Z,21.70
2022-08-16T04:11:26.791Z,21.90
2022-08-16T04:12:53.849Z,21.70
2022-08-16T04:14:01.515Z,21.70
2022-08-16T04:15:16.863Z,21.70
2022-08-16T04:16:26.118Z,21.70
2022-08-16T04:17:29.479Z,21.70
2022-08-16T04:18:31.470Z,21.70
2022-08-16T04:19:35.455Z,21.70
2022-08-16T04:20:38.826Z,21.70
2022-08-16T04:21:45.930Z,21.70
2022-08-16T04:22:49.115Z,21.70
2022-08-16T04:23:51.405Z,21.70
2022-08-16T04:24:59.320Z,21.70
2022-08-16T04:26:02.051Z,21.70
2022-08-16T04:27:04.919Z,21.60
2022-08-16T04:28:29.310Z,21.60
2022-08-16T04:29:44.001Z,21.60
2022-08-16T04:30:48.234Z,21.50
2022-08-16T04:31:55.656Z,21.50
2022-08-16T04:32:58.837Z,21.50
2022-08-16T04:34:01.259Z,21.50
2022-08-16T04:35:08.394Z,21.50
2022-08-16T04:36:11.270Z,21.40
2022-08-16T04:37:21.933Z,21.40
2022-08-16T04:38:24.571Z,21.40
2022-08-16T04:39:37.067Z,21.40
2022-08-16T04:40:50.213Z,21.40
2022-08-16T04:41:56.862Z,21.50
2022-08-16T04:43:01.216Z,21.50
2022-08-16T04:44:03.074Z,21.40
2022-08-16T04:45:35.578Z,21.50
2022-08-16T04:47:02.705Z,21.50
2022-08-16T04:48:00.237Z,21.50
2022-08-16T04:49:03.704Z,21.50
2022-08-16T04:50:21.573Z,21.60
2022-08-16T04:51:23.419Z,21.60
2022-08-16T04:52:33.069Z,21.60
2022-08-16T04:53:36.383Z,21.70
2022-08-16T04:54:43.299Z,21.60
2022-08-16T04:55:45.163Z,21.70
2022-08-16T04:56:48.730Z,21.70
2022-08-16T04:57:53.545Z,21.70
2022-08-16T04:58:57.663Z,21.70
2022-08-16T04:59:59.814Z,21.80
2022-08-16T05:01:21.558Z,21.80
2022-08-16T05:02:41.568Z,21.80
2022-08-16T05:04:00.584Z,21.80
2022-08-16T05:05:03.651Z,21.90
2022-08-16T05:06:07.135Z,21.90
2022-08-16T05:07:14.993Z,21.90
2022-08-16T05:08:28.799Z,21.90
2022-08-16T05:09:32.092Z,21.80
2022-08-16T05:10:38.567Z,21.90
2022-08-16T05:11:40.524Z,21.90
2022-08-16T05:12:44.712Z,21.90
2022-08-16T05:13:48.036Z,21.80
2022-08-16T05:15:01.726Z,21.80
2022-08-16T05:16:06.146Z,21.80
2022-08-16T05:17:07.833Z,21.70
2022-08-16T05:18:10.116Z,21.80
2022-08-16T05:19:18.956Z,21.60
2022-08-16T05:20:38.964Z,21.70
2022-08-16T05:21:42.604Z,21.70
2022-08-16T05:22:44.463Z,21.70
2022-08-16T05:23:55.383Z,21.70
2022-08-16T05:24:57.920Z,21.80
2022-08-16T05:26:00.772Z,21.80
2022-08-16T05:27:11.362Z,21.80
2022-08-16T05:28:13.733Z,21.80
2022-08-16T05:29:15.505Z,21.90
2022-08-16T05:30:34.485Z,21.90
2022-08-16T05:31:37.558Z,21.90
2022-08-16T05:32:50.395Z,21.90
2022-08-16T05:33:53.345Z,22.00
2022-08-16T05:34:56.369Z,22.00
2022-08-16T05:35:58.133Z,22.00
2022-08-16T05:36:59.922Z,21.90
2022-08-16T05:38:02.236Z,22.00
2022-08-16T05:39:07.653Z,22.00
2022-08-16T05:40:13.371Z,22.00
2022-08-16T05:41:16.787Z,22.00
2022-08-16T05:42:20.125Z,22.00
2022-08-16T05:43:22.287Z,22.00
2022-08-16T05:44:25.265Z,22.00
2022-08-16T05:45:27.096Z,22.00
2022-08-16T05:46:30.952Z,22.10
2022-08-16T05:47:33.218Z,22.10
2022-08-16T05:48:45.775Z,22.20
2022-08-16T05:49:57.024Z,22.10
2022-08-16T05:50:58.966Z,22.10
2022-08-16T05:52:01.296Z,22.20
2022-08-16T05:53:03.063Z,22.20
2022-08-16T05:54:04.849Z,22.20
2022-08-16T05:55:07.619Z,22.20
2022-08-16T05:56:11.181Z,22.20
2022-08-16T05:57:21.068Z,22.20
2022-08-16T05:58:32.756Z,22.20
2022-08-16T05:59:35.642Z,22.20
2022-08-16T06:00:38.626Z,22.20
2022-08-16T06:01:41.980Z,22.20
2022-08-16T06:02:44.165Z,22.20
2022-08-16T06:03:46.367Z,22.20
2022-08-16T06:04:49.723Z,22.20
2022-08-16T06:05:51.370Z,22.20
2022-08-16T06:06:56.755Z,22.20
2022-08-16T06:07:59.239Z,22.30
2022-08-16T06:09:01.033Z,22.30
2022-08-16T06:10:04.021Z,22.30
2022-08-16T06:11:10.480Z,22.30
2022-08-16T06:12:26.858Z,22.30
2022-08-16T06:13:32.665Z,22.30
2022-08-16T06:14:34.601Z,22.30
2022-08-16T06:15:37.919Z,22.30
2022-08-16T06:16:43.917Z,22.40
2022-08-16T06:17:46.959Z,22.40
2022-08-16T06:18:53.481Z,22.40
2022-08-16T06:19:55.567Z,22.40
2022-08-16T06:20:57.616Z,22.40
2022-08-16T06:22:01.784Z,22.40
2022-08-16T06:23:16.806Z,22.40
2022-08-16T06:24:54.508Z,22.40
2022-08-16T06:25:40.837Z,22.50
2022-08-16T06:26:57.277Z,22.50
2022-08-16T06:27:59.825Z,22.50
2022-08-16T06:29:05.136Z,22.60
2022-08-16T06:30:12.265Z,22.50
2022-08-16T06:31:24.894Z,22.60
2022-08-16T06:32:27.909Z,22.60
2022-08-16T06:33:41.339Z,22.60
2022-08-16T06:34:56.841Z,22.60
2022-08-16T06:36:04.560Z,22.70
2022-08-16T06:37:10.025Z,22.80
2022-08-16T06:38:32.303Z,22.80
2022-08-16T06:39:34.388Z,22.80
2022-08-16T06:40:36.335Z,22.80
2022-08-16T06:41:39.670Z,22.80
2022-08-16T06:42:47.624Z,22.90
2022-08-16T06:43:51.225Z,22.90
2022-08-16T06:44:53.077Z,22.90
2022-08-16T06:45:55.997Z,22.90
2022-08-16T06:46:57.780Z,22.80
2022-08-16T06:48:05.554Z,22.80
2022-08-16T06:49:10.905Z,22.80
2022-08-16T06:50:22.038Z,22.80
2022-08-16T06:51:46.486Z,22.80
2022-08-16T06:52:59.744Z,22.90
2022-08-16T06:54:04.219Z,22.90
2022-08-16T06:55:07.819Z,22.90
2022-08-16T06:56:23.516Z,23.00
2022-08-16T06:57:25.405Z,23.00
2022-08-16T06:58:31.553Z,23.00
2022-08-16T06:59:52.082Z,23.00
2022-08-16T07:00:55.196Z,23.10
2022-08-16T07:01:59.846Z,23.10
2022-08-16T07:03:01.529Z,23.10
2022-08-16T07:04:32.528Z,23.20
2022-08-16T07:05:41.988Z,23.20
2022-08-16T07:06:44.125Z,23.30
2022-08-16T07:07:50.724Z,23.20
2022-08-16T07:08:52.854Z,23.30
2022-08-16T07:09:55.002Z,23.30
2022-08-16T07:10:58.660Z,23.30
2022-08-16T07:12:03.238Z,23.40
2022-08-16T07:13:08.518Z,23.30
2022-08-16T07:14:26.418Z,23.40
2022-08-16T07:15:28.728Z,23.40
2022-08-16T07:16:30.490Z,23.50
2022-08-16T07:17:33.674Z,23.50
2022-08-16T07:18:36.995Z,23.60
2022-08-16T07:20:02.519Z,23.60
2022-08-16T07:21:02.962Z,23.70
2022-08-16T07:22:06.568Z,23.70
2022-08-16T07:23:38.936Z,23.80
2022-08-16T07:24:45.978Z,23.80
2022-08-16T07:25:47.857Z,23.80
2022-08-16T07:26:49.670Z,23.90
2022-08-16T07:27:52.126Z,24.00
2022-08-16T07:28:53.978Z,24.00
2022-08-16T07:29:57.589Z,24.00
2022-08-16T07:31:01.985Z,24.10
2022-08-16T07:32:04.572Z,24.10
2022-08-16T07:33:09.330Z,24.10
2022-08-16T07:34:11.514Z,24.10
2022-08-16T07:35:14.378Z,24.20
2022-08-16T07:36:21.934Z,24.20
2022-08-16T07:37:24.210Z,24.30
2022-08-16T07:38:33.642Z,24.30
2022-08-16T07:39:43.282Z,24.30
2022-08-16T07:41:00.155Z,24.30
2022-08-16T07:42:03.927Z,24.40
2022-08-16T07:43:08.819Z,24.40
2022-08-16T07:44:16.567Z,24.50
2022-08-16T07:45:20.046Z,24.50
2022-08-16T07:46:39.616Z,24.50
2022-08-16T07:47:43.855Z,24.50
2022-08-16T07:48:47.657Z,24.50
2022-08-16T07:49:53.043Z,24.60
2022-08-16T07:51:02.391Z,24.70
2022-08-16T07:52:20.174Z,24.60
2022-08-16T07:53:22.345Z,24.60
2022-08-16T07:54:37.739Z,24.70
2022-08-16T07:55:46.065Z,24.70
2022-08-16T07:56:49.865Z,24.80
2022-08-16T07:57:59.626Z,24.80
2022-08-16T07:59:05.926Z,24.80
2022-08-16T08:00:18.815Z,24.80
2022-08-16T08:01:20.785Z,24.90
2022-08-16T08:02:28.380Z,24.90
2022-08-16T08:03:35.666Z,24.90
2022-08-16T08:04:42.108Z,24.90
2022-08-16T08:05:44.464Z,24.90
2022-08-16T08:06:50.941Z,25.00
2022-08-16T08:07:53.223Z,25.00
2022-08-16T08:09:00.252Z,25.00
2022-08-16T08:10:02.262Z,25.10
2022-08-16T08:11:09.125Z,25.10
2022-08-16T08:12:31.330Z,25.10
2022-08-16T08:13:42.588Z,25.10
2022-08-16T08:14:46.215Z,25.20
2022-08-16T08:15:52.771Z,25.20
2022-08-16T08:16:55.110Z,25.20
2022-08-16T08:18:20.943Z,25.30
2022-08-16T08:19:19.501Z,25.30
2022-08-16T08:20:28.484Z,25.40
2022-08-16T08:22:01.115Z,25.50
2022-08-16T08:23:00.592Z,25.40
2022-08-16T08:24:03.266Z,25.40
2022-08-16T08:25:12.914Z,25.40
2022-08-16T08:26:17.624Z,25.40
2022-08-16T08:27:22.448Z,25.40
2022-08-16T08:28:25.680Z,25.40
2022-08-16T08:29:37.544Z,25.40
2022-08-16T08:30:52.314Z,25.50
2022-08-16T08:32:04.225Z,25.50
2022-08-16T08:33:26.171Z,25.60
2022-08-16T08:34:30.590Z,25.60
2022-08-16T08:35:34.803Z,25.60
2022-08-16T08:36:37.138Z,25.60
2022-08-16T08:37:55.610Z,25.60
2022-08-16T08:38:58.295Z,25.60
2022-08-16T08:40:00.811Z,25.60
2022-08-16T08:41:08.153Z,25.60
2022-08-16T08:42:10.173Z,25.60
2022-08-16T08:43:18.402Z,25.60
2022-08-16T08:44:29.842Z,25.60
2022-08-16T08:45:52.670Z,25.60
2022-08-16T08:47:00.648Z,25.50
2022-08-16T08:48:03.667Z,25.50
2022-08-16T08:49:08.960Z,25.40
2022-08-16T08:50:32.157Z,25.50
2022-08-16T08:51:37.109Z,25.50
2022-08-16T08:52:48.341Z,25.50
2022-08-16T08:53:57.714Z,25.50
2022-08-16T08:55:04.915Z,25.60
2022-08-16T08:56:22.877Z,25.60
2022-08-16T08:57:27.219Z,25.60
2022-08-16T08:58:36.599Z,25.60
2022-08-16T08:59:41.147Z,25.60
2022-08-16T09:01:01.639Z,25.60
2022-08-16T09:02:03.573Z,25.60
2022-08-16T09:03:05.840Z,25.80
2022-08-16T09:04:14.722Z,25.80
2022-08-16T09:05:20.919Z,25.70
2022-08-16T09:06:24.080Z,25.70
2022-08-16T09:07:28.129Z,25.80
2022-08-16T09:08:31.394Z,25.70
2022-08-16T09:09:40.866Z,25.70
2022-08-16T09:10:43.820Z,25.70
2022-08-16T09:11:53.592Z,25.70
2022-08-16T09:13:06.332Z,25.70
2022-08-16T09:14:24.117Z,25.70
2022-08-16T09:15:32.532Z,25.70
2022-08-16T09:17:01.128Z,25.80
2022-08-16T09:17:56.937Z,25.80
2022-08-16T09:19:03.821Z,25.80
2022-08-16T09:20:07.876Z,25.90
2022-08-16T09:21:10.196Z,26.00
2022-08-16T09:22:21.002Z,26.00
2022-08-16T09:23:25.701Z,26.10
2022-08-16T09:24:52.995Z,26.20
2022-08-16T09:25:51.803Z,26.20
2022-08-16T09:26:53.550Z,26.20
2022-08-16T09:27:58.112Z,26.30
2022-08-16T09:29:17.034Z,26.30
2022-08-16T09:30:33.591Z,26.40
2022-08-16T09:31:41.338Z,26.50
2022-08-16T09:32:46.760Z,26.50
2022-08-16T09:33:51.852Z,26.60
2022-08-16T09:34:53.898Z,26.70
2022-08-16T09:36:01.210Z,26.70
2022-08-16T09:37:03.571Z,26.80
2022-08-16T09:38:22.314Z,26.70
2022-08-16T09:39:41.331Z,26.80
2022-08-16T09:40:47.042Z,26.70
2022-08-16T09:41:53.212Z,26.80
2022-08-16T09:42:59.478Z,26.80
2022-08-16T09:45:10.809Z,26.80
2022-08-16T09:45:29.101Z,26.80
2022-08-16T09:46:33.478Z,26.80
2022-08-16T09:47:56.312Z,26.80
2022-08-16T09:48:59.470Z,26.80
2022-08-16T09:50:11.927Z,26.80
2022-08-16T09:51:14.445Z,26.80
2022-08-16T09:52:16.551Z,26.80
2022-08-16T09:53:23.058Z,26.80
2022-08-16T09:54:32.352Z,26.90
2022-08-16T09:55:44.419Z,26.80
2022-08-16T09:56:52.870Z,26.80
2022-08-16T09:57:55.429Z,26.80
2022-08-16T09:59:05.271Z,26.70
2022-08-16T10:00:44.298Z,26.70
2022-08-16T10:01:34.941Z,26.80
2022-08-16T10:02:44.257Z,26.80
2022-08-16T10:04:02.314Z,26.70
2022-08-16T10:05:05.473Z,26.70
2022-08-16T10:06:07.269Z,26.70
2022-08-16T10:07:15.841Z,26.60
2022-08-16T10:08:25.328Z,26.60
2022-08-16T10:09:44.772Z,26.50
2022-08-16T10:11:09.628Z,26.50
2022-08-16T10:12:30.099Z,26.50
2022-08-16T10:13:34.285Z,26.50
2022-08-16T10:14:36.448Z,26.50
2022-08-16T10:15:41.666Z,26.50
2022-08-16T10:16:48.990Z,26.40
2022-08-16T10:17:59.986Z,26.50
2022-08-16T10:19:07.060Z,26.60
2022-08-16T10:20:11.463Z,26.60
2022-08-16T10:21:20.761Z,26.70
2022-08-16T10:22:24.502Z,26.60
2022-08-16T10:23:26.297Z,26.70
2022-08-16T10:24:30.431Z,26.70
2022-08-16T10:27:17.755Z,26.70
2022-08-16T10:27:20.322Z,26.70
2022-08-16T10:28:29.007Z,26.80
2022-08-16T10:29:36.318Z,26.80
2022-08-16T10:30:58.673Z,26.80
2022-08-16T10:32:00.927Z,26.80
2022-08-16T10:33:05.429Z,26.80
2022-08-16T10:34:30.802Z,26.90
2022-08-16T10:35:32.830Z,26.80
2022-08-16T10:36:39.263Z,26.80
2022-08-16T10:37:41.596Z,26.90
2022-08-16T10:38:43.748Z,26.80
2022-08-16T10:39:45.461Z,26.70
2022-08-16T10:40:48.190Z,26.80
2022-08-16T10:41:49.919Z,26.70
2022-08-16T10:42:51.615Z,26.70
2022-08-16T10:43:53.305Z,26.70
2022-08-16T10:44:55.114Z,26.70
2022-08-16T10:45:59.910Z,26.70
2022-08-16T10:47:02.503Z,26.80
2022-08-16T10:48:28.017Z,26.90
2022-08-16T10:49:28.521Z,26.90
2022-08-16T10:50:32.701Z,27.00
2022-08-16T10:52:02.482Z,27.00
2022-08-16T10:52:59.310Z,27.10
2022-08-16T10:54:02.724Z,27.20
2022-08-16T10:56:52.071Z,27.30
2022-08-16T10:57:56.670Z,27.40
2022-08-16T10:59:29.597Z,27.50
2022-08-16T11:00:22.760Z,27.50
2022-08-16T11:01:39.808Z,27.70
2022-08-16T11:02:57.694Z,27.70
2022-08-16T11:04:02.994Z,27.80
2022-08-16T11:05:24.933Z,27.90
2022-08-16T11:06:27.904Z,27.90
2022-08-16T11:07:52.151Z,28.00
2022-08-16T11:09:20.961Z,28.00
2022-08-16T11:10:20.463Z,28.10
2022-08-16T11:11:22.744Z,28.10
2022-08-16T11:12:24.419Z,28.10
2022-08-16T11:16:26.305Z,28.20
2022-08-16T11:17:42.290Z,28.20
2022-08-16T11:19:03.546Z,28.20
2022-08-16T11:22:11.197Z,28.30
2022-08-16T11:22:59.277Z,28.30
2022-08-16T11:24:02.743Z,28.40
2022-08-16T11:25:12.800Z,28.50
2022-08-16T11:26:24.246Z,28.60
2022-08-16T11:27:35.710Z,28.70
2022-08-16T11:29:59.822Z,28.80
2022-08-16T11:31:03.317Z,28.90
2022-08-16T11:32:06.048Z,28.80
2022-08-16T11:33:10.734Z,28.70
2022-08-16T11:34:15.700Z,28.70
2022-08-16T11:36:59.799Z,28.70
2022-08-16T11:38:47.038Z,28.70
2022-08-16T11:39:36.474Z,28.80
2022-08-16T11:40:44.127Z,28.80
2022-08-16T11:41:46.342Z,28.80
2022-08-16T11:42:54.179Z,28.80
2022-08-16T11:43:56.769Z,28.80
2022-08-16T11:44:59.746Z,28.80
2022-08-16T11:46:43.614Z,28.80
2022-08-16T11:47:26.680Z,28.80
2022-08-16T11:48:30.595Z,28.80
2022-08-16T11:49:32.305Z,28.80
2022-08-16T11:50:35.001Z,28.90
2022-08-16T11:51:36.731Z,28.90
2022-08-16T11:52:39.125Z,28.90
2022-08-16T11:53:48.556Z,29.00
2022-08-16T11:54:53.765Z,29.10
2022-08-16T11:55:59.924Z,29.10
2022-08-16T11:57:02.046Z,29.20
2022-08-16T11:58:04.581Z,29.20
2022-08-16T11:59:07.162Z,29.20
2022-08-16T12:00:33.663Z,29.30
2022-08-16T12:01:44.534Z,29.30
2022-08-16T12:02:58.088Z,29.30
2022-08-16T12:04:00.131Z,29.30
2022-08-16T12:05:02.114Z,29.30
2022-08-16T12:06:25.102Z,29.30
2022-08-16T12:07:27.667Z,29.40
2022-08-16T12:08:31.495Z,29.40
2022-08-16T12:09:33.591Z,29.40
2022-08-16T12:10:43.097Z,29.40
2022-08-16T12:11:45.000Z,29.50
2022-08-16T12:12:52.183Z,29.50
2022-08-16T12:13:54.068Z,29.50
2022-08-16T12:14:59.867Z,29.50
2022-08-16T12:16:02.274Z,29.60
2022-08-16T12:17:05.657Z,29.50
2022-08-16T12:18:10.425Z,29.60
2022-08-16T12:19:13.883Z,29.60
2022-08-16T12:20:23.095Z,29.60
2022-08-16T12:21:24.969Z,29.60
2022-08-16T12:22:38.704Z,29.60
2022-08-16T12:23:41.089Z,29.60
2022-08-16T12:24:44.072Z,29.60
2022-08-16T12:25:55.617Z,29.50
2022-08-16T12:26:58.141Z,29.60
2022-08-16T12:28:03.458Z,29.60
2022-08-16T12:29:06.065Z,29.70
2022-08-16T12:30:21.310Z,29.80
2022-08-16T12:31:24.532Z,29.90
2022-08-16T12:32:38.166Z,29.90
2022-08-16T12:33:48.467Z,30.00
2022-08-16T12:34:56.328Z,30.10
2022-08-16T12:35:58.358Z,30.10
2022-08-16T12:37:04.141Z,30.10
2022-08-16T12:38:40.776Z,30.10
2022-08-16T12:39:31.487Z,30.10
2022-08-16T12:40:37.151Z,30.10
2022-08-16T12:41:46.242Z,30.10
2022-08-16T12:42:52.430Z,30.20
2022-08-16T12:43:57.032Z,30.20
2022-08-16T12:45:05.789Z,30.30
2022-08-16T12:46:09.713Z,30.40
2022-08-16T12:47:30.536Z,30.30
2022-08-16T12:48:52.701Z,30.40
2022-08-16T12:49:54.539Z,30.30
2022-08-16T12:50:57.131Z,30.30
2022-08-16T12:52:01.249Z,30.30
2022-08-16T12:53:04.462Z,30.20
2022-08-16T12:54:09.675Z,30.20
2022-08-16T12:55:11.718Z,30.20
2022-08-16T12:56:16.197Z,30.20
2022-08-16T12:57:21.360Z,30.20
2022-08-16T12:58:48.934Z,30.20
2022-08-16T12:59:45.637Z,30.30
2022-08-16T13:00:48.728Z,30.30
2022-08-16T13:01:58.296Z,30.40
2022-08-16T13:03:02.420Z,30.40
2022-08-16T13:04:21.012Z,30.60
2022-08-16T13:05:42.924Z,30.50
2022-08-16T13:06:55.884Z,30.60
2022-08-16T13:07:58.677Z,30.70
2022-08-16T13:09:18.230Z,30.80
2022-08-16T13:10:37.351Z,30.70
2022-08-16T13:11:49.164Z,30.80
2022-08-16T13:12:57.072Z,30.90
2022-08-16T13:13:59.401Z,31.00
2022-08-16T13:15:02.271Z,31.00
2022-08-16T13:16:15.147Z,31.10
2022-08-16T13:17:21.896Z,31.20
2022-08-16T13:18:32.516Z,31.30
2022-08-16T13:20:05.527Z,31.30
2022-08-16T13:20:58.362Z,31.30
2022-08-16T13:22:01.271Z,31.40
2022-08-16T13:23:07.386Z,31.40
2022-08-16T13:24:11.244Z,31.50
2022-08-16T13:25:20.868Z,31.60
2022-08-16T13:26:24.562Z,31.70
2022-08-16T13:28:01.480Z,31.80
2022-08-16T13:28:57.593Z,31.80
2022-08-16T13:30:00.748Z,31.90
2022-08-16T13:31:03.600Z,31.90
2022-08-16T13:32:06.401Z,31.90
2022-08-16T13:33:27.616Z,31.90
2022-08-16T13:34:31.991Z,32.00
2022-08-16T13:35:35.130Z,32.20
2022-08-16T13:36:49.336Z,32.20
2022-08-16T13:37:52.054Z,32.20
2022-08-16T13:38:55.836Z,32.50
2022-08-16T13:39:59.417Z,32.60
2022-08-16T13:41:02.481Z,32.70
2022-08-16T13:42:09.008Z,32.70
2022-08-16T13:43:14.755Z,32.80
2022-08-16T13:44:18.963Z,32.90
2022-08-16T13:45:22.800Z,33.00
2022-08-16T13:46:24.548Z,32.90
2022-08-16T13:47:30.018Z,33.10
2022-08-16T13:48:37.110Z,33.20
2022-08-16T13:49:46.493Z,33.10
2022-08-16T13:50:49.355Z,33.20
2022-08-16T13:51:53.888Z,33.30
2022-08-16T13:52:56.089Z,33.30
2022-08-16T13:54:03.851Z,33.40
2022-08-16T13:55:06.343Z,33.50
2022-08-16T13:56:24.777Z,33.50
2022-08-16T13:57:53.362Z,33.40
2022-08-16T13:58:55.054Z,33.40
2022-08-16T13:59:57.579Z,33.40
2022-08-16T14:01:00.771Z,33.30
2022-08-16T14:02:06.805Z,33.20
2022-08-16T14:03:09.230Z,33.20
2022-08-16T14:04:19.083Z,33.20
2022-08-16T14:05:27.920Z,33.30
2022-08-16T14:06:29.586Z,33.30
2022-08-16T14:07:31.683Z,33.20
2022-08-16T14:08:42.168Z,33.20
2022-08-16T14:09:44.329Z,33.30
2022-08-16T14:10:46.872Z,33.40
2022-08-16T14:11:53.397Z,33.40
2022-08-16T14:12:55.506Z,33.50
2022-08-16T14:13:59.413Z,33.60
2022-08-16T14:15:02.793Z,33.60
2022-08-16T14:16:04.708Z,33.70
2022-08-16T14:17:16.558Z,33.80
2022-08-16T14:18:20.636Z,33.80
2022-08-16T14:19:23.084Z,33.80
2022-08-16T14:20:25.945Z,33.90
2022-08-16T14:21:27.674Z,33.90
2022-08-16T14:22:42.348Z,33.90
2022-08-16T14:23:44.466Z,33.90
2022-08-16T14:24:48.634Z,33.90
2022-08-16T14:25:53.784Z,34.00
2022-08-16T14:26:56.154Z,34.00
2022-08-16T14:27:58.785Z,34.00
2022-08-16T14:29:03.984Z,34.00
2022-08-16T14:30:09.263Z,34.00
2022-08-16T14:31:11.485Z,34.00
2022-08-16T14:32:32.653Z,33.90
2022-08-16T14:33:35.641Z,33.90
2022-08-16T14:34:37.496Z,33.90
2022-08-16T14:35:49.116Z,33.90
2022-08-16T14:36:52.941Z,33.80
2022-08-16T14:37:56.964Z,33.80
2022-08-16T14:39:00.565Z,33.80
2022-08-16T14:40:03.867Z,34.00
2022-08-16T14:41:10.231Z,33.80
2022-08-16T14:42:18.486Z,33.80